createdAt,value
2022-08-28T00:01:08.116Z,14.87
2022-08-28T00:03:54.794Z,14.83
2022-08-28T00:06:39.957Z,14.73
2022-08-28T00:09:25.425Z,14.66
2022-08-28T00:12:12.380Z,14.55
2022-08-28T00:14:57.548Z,14.52
2022-08-28T00:17:42.580Z,14.48
2022-08-28T00:20:28.859Z,14.40
2022-08-28T00:23:14.934Z,14.33
2022-08-28T00:26:00.592Z,14.32
2022-08-28T00:28:45.556Z,14.40
2022-08-28T00:31:30.638Z,14.43
2022-08-28T00:34:15.957Z,14.42
2022-08-28T00:37:01.557Z,14.34
2022-08-28T00:39:47.834Z,14.44
2022-08-28T00:42:38.332Z,14.38
2022-08-28T00:45:25.384Z,14.37
2022-08-28T00:48:10.886Z,14.35
2022-08-28T00:51:16.117Z,14.33
2022-08-28T00:54:06.862Z,14.33
2022-08-28T00:56:55.081Z,14.26
2022-08-28T00:59:40.351Z,14.13
2022-08-28T01:02:26.539Z,14.01
2022-08-28T01:05:13.653Z,14.02
2022-08-28T01:07:59.340Z,14.00
2022-08-28T01:10:50.327Z,14.03
2022-08-28T01:13:39.666Z,14.02
2022-08-28T01:16:31.676Z,14.06
2022-08-28T01:19:28.829Z,14.05
2022-08-28T01:22:37.336Z,14.02
2022-08-28T01:25:24.669Z,13.93
2022-08-28T01:28:12.626Z,13.98
2022-08-28T01:30:58.314Z,13.82
2022-08-28T01:33:45.108Z,13.94
2022-08-28T01:36:31.184Z,13.88
2022-08-28T01:39:20.457Z,13.84
2022-08-28T01:42:06.821Z,13.77
2022-08-28T01:44:54.104Z,13.72
2022-08-28T01:47:42.352Z,13.71
2022-08-28T01:50:27.464Z,13.72
2022-08-28T01:53:16.390Z,13.71
2022-08-28T01:56:04.829Z,13.73
2022-08-28T01:58:49.959Z,13.67
2022-08-28T02:01:35.729Z,13.61
2022-08-28T02:04:21.180Z,13.53
2022-08-28T02:07:16.907Z,13.64
2022-08-28T02:10:02.811Z,13.61
2022-08-28T02:12:49.236Z,13.61
2022-08-28T02:15:36.523Z,13.59
2022-08-28T02:18:21.800Z,13.50
2022-08-28T02:21:08.129Z,13.48
2022-08-28T02:23:54.301Z,13.39
2022-08-28T02:26:39.609Z,13.31
2022-08-28T02:29:27.069Z,13.25
2022-08-28T02:32:12.451Z,13.25
2022-08-28T02:34:57.674Z,13.24
2022-08-28T02:37:44.373Z,13.20
2022-08-28T02:40:30.395Z,13.12
2022-08-28T02:43:15.534Z,13.01
2022-08-28T02:46:00.945Z,12.98
2022-08-28T02:48:46.085Z,12.93
2022-08-28T02:51:33.497Z,12.97
2022-08-28T02:54:18.654Z,12.99
2022-08-28T02:57:03.694Z,12.99
2022-08-28T02:59:48.998Z,12.89
2022-08-28T03:02:34.161Z,13.06
2022-08-28T03:05:23.318Z,13.09
2022-08-28T03:08:08.419Z,13.09
2022-08-28T03:10:53.729Z,13.15
2022-08-28T03:13:39.126Z,13.09
2022-08-28T03:16:25.379Z,13.18
2022-08-28T03:19:10.405Z,13.14
2022-08-28T03:21:55.641Z,13.22
2022-08-28T03:24:41.383Z,13.31
2022-08-28T03:27:26.559Z,13.19
2022-08-28T03:30:12.382Z,13.23
2022-08-28T03:32:57.710Z,13.22
2022-08-28T03:35:42.992Z,13.23
2022-08-28T03:38:28.211Z,13.25
2022-08-28T03:41:17.364Z,13.26
2022-08-28T03:44:02.927Z,13.27
2022-08-28T03:46:47.837Z,13.31
2022-08-28T03:49:32.907Z,13.33
2022-08-28T03:52:17.992Z,13.27
2022-08-28T03:55:04.467Z,13.25
2022-08-28T03:57:49.340Z,13.24
2022-08-28T04:00:35.360Z,13.23
2022-08-28T04:03:20.742Z,13.24
2022-08-28T04:06:06.191Z,13.16
2022-08-28T04:08:51.326Z,13.18
2022-08-28T04:11:43.858Z,13.13
2022-08-28T04:14:28.911Z,13.02
2022-08-28T04:17:14.535Z,13.07
2022-08-28T04:19:59.768Z,12.95
2022-08-28T04:22:45.252Z,12.89
2022-08-28T04:25:31.642Z,12.91
2022-08-28T04:28:17.620Z,12.93
2022-08-28T04:31:03.289Z,12.90
2022-08-28T04:33:48.285Z,12.94
2022-08-28T04:36:33.762Z,12.92
2022-08-28T04:39:19.556Z,12.88
2022-08-28T04:42:05.009Z,12.82
2022-08-28T04:44:50.421Z,12.87
2022-08-28T04:47:37.939Z,12.93
2022-08-28T04:50:22.818Z,12.89
2022-08-28T04:53:08.278Z,12.93
2022-08-28T04:55:55.217Z,12.94
2022-08-28T04:58:42.481Z,12.94
2022-08-28T05:01:27.619Z,13.05
2022-08-28T05:04:13.170Z,13.00
2022-08-28T05:06:58.243Z,12.99
2022-08-28T05:09:43.599Z,12.97
2022-08-28T05:12:28.512Z,12.89
2022-08-28T05:15:13.971Z,12.88
2022-08-28T05:17:59.497Z,12.95
2022-08-28T05:20:46.444Z,12.89
2022-08-28T05:23:31.638Z,12.99
2022-08-28T05:26:19.013Z,13.05
2022-08-28T05:29:05.574Z,13.06
2022-08-28T05:31:50.516Z,13.12
2022-08-28T05:34:35.978Z,13.10
2022-08-28T05:37:21.287Z,13.18
2022-08-28T05:40:07.265Z,13.10
2022-08-28T05:42:52.594Z,13.11
2022-08-28T05:45:37.843Z,13.12
2022-08-28T05:48:23.312Z,13.09
2022-08-28T05:51:13.442Z,13.10
2022-08-28T05:53:58.916Z,13.19
2022-08-28T05:56:46.021Z,13.23
2022-08-28T05:59:31.267Z,13.30
2022-08-28T06:02:16.653Z,13.47
2022-08-28T06:05:02.024Z,13.52
2022-08-28T06:07:46.974Z,13.56
2022-08-28T06:10:32.292Z,13.56
2022-08-28T06:13:17.637Z,13.57
2022-08-28T06:16:05.341Z,13.60
2022-08-28T06:18:53.498Z,13.67
2022-08-28T06:21:41.465Z,13.78
2022-08-28T06:24:28.152Z,13.88
2022-08-28T06:27:13.179Z,13.97
2022-08-28T06:29:58.700Z,14.05
2022-08-28T06:32:43.770Z,14.11
2022-08-28T06:35:28.761Z,14.18
2022-08-28T06:38:14.658Z,14.24
2022-08-28T06:41:00.088Z,14.33
2022-08-28T06:43:45.104Z,14.41
2022-08-28T06:46:33.145Z,14.42
2022-08-28T06:49:18.517Z,14.75
2022-08-28T06:52:03.573Z,14.86
2022-08-28T06:54:55.297Z,15.09
2022-08-28T06:57:41.217Z,15.18
2022-08-28T07:00:26.657Z,15.26
2022-08-28T07:03:12.432Z,15.34
2022-08-28T07:05:59.151Z,15.42
2022-08-28T07:08:44.595Z,15.63
2022-08-28T07:11:31.633Z,16.14
2022-08-28T07:14:17.157Z,16.36
2022-08-28T07:17:02.360Z,16.18
2022-08-28T07:19:47.509Z,16.05
2022-08-28T07:22:33.293Z,16.09
2022-08-28T07:25:18.373Z,16.02
2022-08-28T07:28:05.538Z,16.07
2022-08-28T07:31:03.457Z,16.16
2022-08-28T07:33:50.859Z,16.13
2022-08-28T07:36:40.047Z,16.21
2022-08-28T07:39:25.211Z,16.27
2022-08-28T07:42:33.926Z,16.37
2022-08-28T07:45:21.182Z,16.46
2022-08-28T07:48:11.291Z,16.52
2022-08-28T07:50:57.061Z,16.72
2022-08-28T07:53:42.265Z,16.82
2022-08-28T07:56:29.939Z,16.89
2022-08-28T07:59:17.402Z,17.01
2022-08-28T08:02:05.498Z,17.14
2022-08-28T08:04:50.694Z,17.23
2022-08-28T08:07:39.840Z,17.20
2022-08-28T08:10:27.259Z,17.21
2022-08-28T08:13:18.985Z,17.32
2022-08-28T08:16:11.881Z,17.42
2022-08-28T08:18:57.702Z,17.52
2022-08-28T08:21:45.719Z,17.49
2022-08-28T08:24:31.268Z,17.54
2022-08-28T08:27:16.530Z,17.60
2022-08-28T08:30:01.829Z,17.59
2022-08-28T08:32:47.085Z,17.60
2022-08-28T08:35:32.481Z,17.61
2022-08-28T08:38:17.569Z,17.63
2022-08-28T08:41:13.781Z,17.51
2022-08-28T08:44:17.593Z,17.60
2022-08-28T08:47:14.903Z,17.84
2022-08-28T08:50:09.355Z,18.02
2022-08-28T08:53:06.641Z,18.12
2022-08-28T08:55:54.329Z,18.26
2022-08-28T08:58:42.419Z,18.40
2022-08-28T09:01:41.592Z,18.60
2022-08-28T09:04:34.398Z,18.72
2022-08-28T09:07:25.292Z,18.82
2022-08-28T09:10:12.459Z,18.85
2022-08-28T09:13:13.909Z,18.89
2022-08-28T09:16:00.174Z,19.04
2022-08-28T09:18:45.863Z,19.25
2022-08-28T09:21:34.370Z,19.38
2022-08-28T09:24:29.734Z,19.48
2022-08-28T09:27:25.993Z,19.63
2022-08-28T09:30:11.439Z,19.72
2022-08-28T09:33:01.022Z,19.64
2022-08-28T09:35:45.990Z,19.61
2022-08-28T09:38:31.165Z,19.62
2022-08-28T09:41:35.102Z,19.68
2022-08-28T09:44:20.618Z,19.69
2022-08-28T09:47:05.658Z,19.63
2022-08-28T09:49:50.821Z,19.57
2022-08-28T09:52:36.058Z,19.68
2022-08-28T09:55:56.985Z,19.86
2022-08-28T09:58:48.705Z,19.98
2022-08-28T10:01:49.132Z,20.22
2022-08-28T10:04:43.454Z,20.46
2022-08-28T10:07:56.677Z,20.67
2022-08-28T10:10:47.962Z,20.65
2022-08-28T10:13:47.179Z,20.65
2022-08-28T10:16:51.051Z,20.64
2022-08-28T10:19:48.193Z,20.53
2022-08-28T10:22:36.372Z,20.38
2022-08-28T10:25:46.325Z,20.27
2022-08-28T10:28:50.262Z,20.39
2022-08-28T10:31:52.613Z,20.80
2022-08-28T10:34:49.830Z,20.75
2022-08-28T10:37:59.852Z,20.77
2022-08-28T10:41:17.388Z,20.68
2022-08-28T10:44:05.174Z,20.60
2022-08-28T10:46:55.563Z,20.48
2022-08-28T10:49:44.253Z,20.47
2022-08-28T10:52:45.200Z,20.48
2022-08-28T10:55:37.544Z,20.43
2022-08-28T10:58:25.998Z,20.38
2022-08-28T11:01:24.852Z,20.47
2022-08-28T11:04:25.511Z,20.48
2022-08-28T11:07:19.901Z,20.49
2022-08-28T11:10:34.879Z,21.00
2022-08-28T11:13:42.983Z,21.03
2022-08-28T11:16:28.096Z,21.00
2022-08-28T11:19:22.734Z,20.88
2022-08-28T11:22:17.729Z,20.91
2022-08-28T11:25:34.293Z,21.31
2022-08-28T11:28:24.045Z,21.29
2022-08-28T11:31:09.984Z,21.19
2022-08-28T11:34:00.117Z,21.46
2022-08-28T11:36:45.201Z,21.79
2022-08-28T11:39:30.425Z,21.72
2022-08-28T11:42:34.339Z,21.98
2022-08-28T11:45:22.146Z,22.39
2022-08-28T11:48:07.306Z,22.88
2022-08-28T11:51:03.285Z,22.70
2022-08-28T11:53:59.793Z,23.10
2022-08-28T11:57:06.249Z,23.48
2022-08-28T12:00:29.108Z,23.55
2022-08-28T12:03:24.352Z,23.03
2022-08-28T12:06:10.873Z,23.13
2022-08-28T12:08:58.984Z,22.79
2022-08-28T12:11:43.852Z,22.34
2022-08-28T12:14:28.860Z,22.53
2022-08-28T12:17:16.803Z,22.65
2022-08-28T12:20:10.219Z,22.77
2022-08-28T12:23:01.490Z,22.96
2022-08-28T12:25:47.311Z,22.93
2022-08-28T12:29:03.423Z,23.02
2022-08-28T12:32:07.041Z,22.98
2022-08-28T12:34:57.907Z,23.07
2022-08-28T12:37:52.823Z,22.99
2022-08-28T12:40:41.682Z,22.82
2022-08-28T12:43:35.783Z,22.96
2022-08-28T12:46:30.994Z,22.93
2022-08-28T12:49:37.580Z,22.64
2022-08-28T12:52:25.360Z,22.58
2022-08-28T12:55:10.781Z,22.44
2022-08-28T12:57:56.152Z,22.85
2022-08-28T13:00:56.623Z,22.93
2022-08-28T13:03:54.694Z,22.93
2022-08-28T13:06:39.805Z,22.98
2022-08-28T13:09:28.282Z,23.14
2022-08-28T13:12:55.951Z,23.45
2022-08-28T13:15:48.852Z,23.44
2022-08-28T13:18:43.054Z,23.36
2022-08-28T13:21:33.972Z,23.34
2022-08-28T13:24:42.389Z,23.21
2022-08-28T13:27:28.173Z,23.32
2022-08-28T13:30:20.053Z,23.59
2022-08-28T13:33:23.674Z,23.46
2022-08-28T13:36:24.718Z,23.13
2022-08-28T13:39:09.987Z,22.80
2022-08-28T13:41:58.434Z,22.68
2022-08-28T13:44:48.748Z,22.79
2022-08-28T13:47:33.696Z,22.82
2022-08-28T13:50:19.088Z,22.75
2022-08-28T13:53:04.261Z,22.75
2022-08-28T13:55:50.441Z,22.82
2022-08-28T13:58:35.337Z,22.64
2022-08-28T14:01:24.421Z,22.73
2022-08-28T14:04:19.593Z,22.56
2022-08-28T14:07:04.736Z,22.33
2022-08-28T14:09:55.473Z,22.39
2022-08-28T14:12:43.124Z,23.14
2022-08-28T14:15:28.319Z,23.70
2022-08-28T14:18:13.539Z,24.11
2022-08-28T14:20:58.670Z,24.21
2022-08-28T14:23:43.890Z,24.18
2022-08-28T14:26:30.253Z,24.04
2022-08-28T14:29:17.747Z,24.28
2022-08-28T14:32:04.182Z,24.44
2022-08-28T14:34:50.634Z,24.26
2022-08-28T14:37:35.937Z,24.37
2022-08-28T14:40:20.974Z,24.33
2022-08-28T14:43:07.344Z,23.91
2022-08-28T14:45:52.611Z,23.49
2022-08-28T14:48:37.778Z,23.14
2022-08-28T14:51:23.468Z,23.03
2022-08-28T14:54:11.517Z,23.85
2022-08-28T14:56:56.473Z,24.32
2022-08-28T14:59:41.653Z,24.10
2022-08-28T15:02:27.021Z,23.71
2022-08-28T15:05:12.177Z,23.46
2022-08-28T15:07:57.470Z,23.26
2022-08-28T15:10:44.491Z,23.15
2022-08-28T15:13:31.544Z,23.34
2022-08-28T15:16:20.849Z,23.24
2022-08-28T15:19:06.982Z,23.26
2022-08-28T15:21:54.974Z,23.29
2022-08-28T15:24:40.488Z,23.52
2022-08-28T15:27:25.636Z,23.30
2022-08-28T15:30:11.653Z,23.12
2022-08-28T15:32:58.026Z,23.00
2022-08-28T15:35:43.027Z,22.95
2022-08-28T15:38:28.315Z,22.79
2022-08-28T15:41:25.790Z,22.69
2022-08-28T15:44:14.961Z,22.72
2022-08-28T15:47:02.294Z,22.73
2022-08-28T15:49:54.279Z,22.72
2022-08-28T15:52:40.883Z,22.75
2022-08-28T15:55:27.794Z,22.63
2022-08-28T15:58:14.281Z,22.46
2022-08-28T16:00:59.597Z,22.38
2022-08-28T16:03:44.735Z,22.32
2022-08-28T16:06:30.042Z,22.36
2022-08-28T16:09:15.331Z,22.40
2022-08-28T16:12:00.510Z,22.33
2022-08-28T16:14:45.922Z,22.23
2022-08-28T16:17:31.230Z,22.22
2022-08-28T16:20:16.569Z,22.18
2022-08-28T16:23:02.077Z,22.17
2022-08-28T16:25:47.172Z,22.20
2022-08-28T16:28:33.307Z,22.18
2022-08-28T16:31:20.639Z,22.13
2022-08-28T16:34:06.452Z,22.01
2022-08-28T16:36:55.358Z,21.94
2022-08-28T16:39:40.372Z,21.89
2022-08-28T16:42:28.590Z,21.74
2022-08-28T16:45:16.629Z,21.74
2022-08-28T16:48:01.557Z,21.71
2022-08-28T16:50:47.029Z,21.65
2022-08-28T16:53:32.709Z,21.62
2022-08-28T16:56:17.865Z,21.59
2022-08-28T16:59:04.156Z,21.53
2022-08-28T17:01:55.426Z,21.48
2022-08-28T17:04:40.447Z,21.48
2022-08-28T17:07:26.201Z,21.39
2022-08-28T17:10:14.174Z,21.30
2022-08-28T17:12:59.553Z,21.28
2022-08-28T17:15:44.936Z,21.19
2022-08-28T17:18:30.282Z,21.25
2022-08-28T17:21:34.026Z,21.27
2022-08-28T17:24:19.597Z,21.15
2022-08-28T17:27:05.861Z,21.11
2022-08-28T17:29:51.615Z,21.00
2022-08-28T17:32:37.246Z,20.92
2022-08-28T17:35:22.801Z,20.87
2022-08-28T17:38:08.739Z,20.87
2022-08-28T17:40:54.060Z,20.76
2022-08-28T17:43:39.463Z,20.70
2022-08-28T17:46:25.677Z,20.56
2022-08-28T17:49:11.433Z,20.58
2022-08-28T17:51:56.715Z,20.52
2022-08-28T17:54:41.976Z,20.43
2022-08-28T17:57:30.479Z,20.41
2022-08-28T18:00:16.497Z,20.25
2022-08-28T18:03:01.624Z,20.22
2022-08-28T18:05:46.951Z,20.14
2022-08-28T18:08:32.226Z,20.07
2022-08-28T18:11:19.156Z,20.08
2022-08-28T18:14:04.538Z,20.09
2022-08-28T18:16:49.602Z,20.07
2022-08-28T18:19:34.771Z,20.03
2022-08-28T18:22:20.074Z,19.97
2022-08-28T18:25:06.640Z,19.93
2022-08-28T18:27:51.864Z,19.91
2022-08-28T18:30:37.097Z,19.85
2022-08-28T18:33:24.100Z,19.77
2022-08-28T18:36:11.698Z,19.69
2022-08-28T18:38:57.500Z,19.65
2022-08-28T18:41:43.866Z,19.57
2022-08-28T18:44:31.849Z,19.49
2022-08-28T18:47:17.812Z,19.42
2022-08-28T18:50:05.062Z,19.35
2022-08-28T18:52:51.890Z,19.29
2022-08-28T18:55:37.194Z,19.23
2022-08-28T18:58:23.814Z,19.18
2022-08-28T19:01:09.409Z,19.10
2022-08-28T19:03:55.410Z,19.08
2022-08-28T19:06:41.032Z,18.98
2022-08-28T19:09:32.112Z,18.91
2022-08-28T19:12:17.613Z,18.82
2022-08-28T19:15:03.446Z,18.78
2022-08-28T19:17:49.044Z,18.77
2022-08-28T19:20:34.784Z,18.73
2022-08-28T19:23:19.929Z,18.72
2022-08-28T19:26:06.676Z,18.65
2022-08-28T19:28:52.101Z,18.63
2022-08-28T19:31:37.595Z,18.59
2022-08-28T19:34:23.702Z,18.56
2022-08-28T19:37:08.861Z,18.54
2022-08-28T19:39:57.371Z,18.47
2022-08-28T19:42:42.731Z,18.41
2022-08-28T19:45:27.838Z,18.42
2022-08-28T19:48:14.182Z,18.42
2022-08-28T19:51:04.568Z,18.40
2022-08-28T19:53:57.916Z,18.37
2022-08-28T19:56:43.821Z,18.32
2022-08-28T19:59:28.993Z,18.33
2022-08-28T20:02:14.271Z,18.34
2022-08-28T20:04:59.457Z,18.31
2022-08-28T20:07:44.724Z,18.27
2022-08-28T20:10:31.552Z,18.24
2022-08-28T20:13:17.915Z,18.24
2022-08-28T20:16:05.046Z,18.14
2022-08-28T20:18:50.446Z,18.16
2022-08-28T20:21:38.388Z,18.13
2022-08-28T20:24:24.902Z,18.10
2022-08-28T20:27:09.990Z,18.06
2022-08-28T20:29:55.111Z,18.03
2022-08-28T20:32:41.682Z,17.99
2022-08-28T20:35:27.561Z,17.96
2022-08-28T20:38:13.690Z,17.91
2022-08-28T20:41:24.810Z,17.81
2022-08-28T20:44:12.826Z,17.85
2022-08-28T20:46:58.416Z,17.83
2022-08-28T20:49:43.631Z,17.76
2022-08-28T20:52:28.670Z,17.72
2022-08-28T20:55:14.193Z,17.68
2022-08-28T20:57:59.119Z,17.72
2022-08-28T21:00:44.709Z,17.63
2022-08-28T21:03:30.104Z,17.68
2022-08-28T21:06:15.302Z,17.56
2022-08-28T21:09:00.614Z,17.57
2022-08-28T21:11:46.200Z,17.51
2022-08-28T21:14:31.307Z,17.45
2022-08-28T21:17:16.888Z,17.40
2022-08-28T21:20:15.271Z,17.33
2022-08-28T21:23:00.391Z,17.29
2022-08-28T21:25:45.513Z,17.27
2022-08-28T21:28:30.485Z,17.20
2022-08-28T21:31:15.740Z,17.11
2022-08-28T21:34:00.894Z,17.16
2022-08-28T21:36:50.379Z,17.08
2022-08-28T21:39:36.073Z,17.01
2022-08-28T21:42:20.977Z,17.01
2022-08-28T21:45:11.858Z,17.03
2022-08-28T21:47:57.804Z,16.97
2022-08-28T21:50:43.106Z,16.87
2022-08-28T21:53:28.506Z,16.94
2022-08-28T21:56:26.023Z,16.92
2022-08-28T21:59:11.404Z,16.85
2022-08-28T22:01:57.311Z,16.76
2022-08-28T22:04:43.028Z,16.81
2022-08-28T22:07:28.358Z,16.71
2022-08-28T22:10:13.976Z,16.76
2022-08-28T22:12:58.930Z,16.78
2022-08-28T22:15:46.042Z,16.81
2022-08-28T22:18:32.109Z,16.79
2022-08-28T22:21:41.724Z,16.80
2022-08-28T22:24:27.195Z,16.81
2022-08-28T22:27:13.504Z,16.81
2022-08-28T22:29:58.718Z,16.76
2022-08-28T22:32:45.278Z,16.74
2022-08-28T22:35:30.405Z,16.72
2022-08-28T22:38:15.701Z,16.69
2022-08-28T22:41:00.819Z,16.69
2022-08-28T22:43:48.179Z,16.67
2022-08-28T22:46:35.888Z,16.68
2022-08-28T22:49:21.072Z,16.65
2022-08-28T22:52:06.273Z,16.65
2022-08-28T22:54:53.147Z,16.64
2022-08-28T22:57:38.583Z,16.63
2022-08-28T23:00:26.509Z,16.54
2022-08-28T23:03:11.953Z,16.62
2022-08-28T23:05:58.275Z,16.52
2022-08-28T23:08:43.978Z,16.51
2022-08-28T23:11:29.045Z,16.60
2022-08-28T23:14:14.826Z,16.52
2022-08-28T23:17:00.014Z,16.45
2022-08-28T23:19:48.020Z,16.48
2022-08-28T23:22:34.165Z,16.51
2022-08-28T23:25:22.817Z,16.48
2022-08-28T23:28:08.009Z,16.32
2022-08-28T23:30:53.288Z,16.40
2022-08-28T23:33:38.704Z,16.38
2022-08-28T23:36:23.986Z,16.35
2022-08-28T23:39:09.557Z,16.35
2022-08-28T23:41:55.014Z,16.31
2022-08-28T23:44:40.189Z,16.29
2022-08-28T23:47:25.613Z,16.22
2022-08-28T23:50:18.071Z,16.15
2022-08-28T23:53:04.423Z,16.17
2022-08-28T23:55:50.052Z,16.07
2022-08-28T23:58:35.821Z,16.04
